createdAt,value
2018-12-02T00:03:03.829Z,0
2018-12-02T00:06:31.700Z,0
2018-12-02T00:09:59.564Z,0
2018-12-02T00:13:27.429Z,0
2018-12-02T00:16:55.284Z,0
2018-12-02T00:20:23.130Z,0
2018-12-02T00:23:51.975Z,0
2018-12-02T00:27:19.851Z,0
2018-12-02T00:30:48.664Z,0
2018-12-02T00:34:16.523Z,0
2018-12-02T00:37:44.374Z,0
2018-12-02T00:41:12.208Z,0
2018-12-02T00:44:40.077Z,0
2018-12-02T00:48:07.937Z,0
2018-12-02T00:51:35.781Z,0
2018-12-02T00:55:04.334Z,0
2018-12-02T00:58:32.191Z,0
2018-12-02T01:02:00.037Z,0
2018-12-02T01:05:27.898Z,0
2018-12-02T01:08:55.751Z,0
2018-12-02T01:12:24.604Z,0
2018-12-02T01:15:52.448Z,0
2018-12-02T01:19:20.306Z,0
2018-12-02T01:22:48.154Z,0
2018-12-02T01:26:15.991Z,0
2018-12-02T01:29:43.840Z,0
2018-12-02T01:33:12.692Z,0
2018-12-02T01:36:40.540Z,0
2018-12-02T01:40:08.399Z,0
2018-12-02T01:43:36.255Z,0
2018-12-02T01:47:04.098Z,0
2018-12-02T01:50:31.959Z,0
2018-12-02T01:54:00.817Z,0
2018-12-02T01:57:28.662Z,0
2018-12-02T02:00:57.519Z,0
2018-12-02T02:04:25.379Z,0
2018-12-02T02:07:53.237Z,0
2018-12-02T02:11:22.064Z,0
2018-12-02T02:14:49.929Z,0
2018-12-02T02:18:17.782Z,0
2018-12-02T02:21:45.626Z,0
2018-12-02T02:25:13.478Z,0
2018-12-02T02:28:41.328Z,0
2018-12-02T02:32:09.169Z,0
2018-12-02T02:35:37.025Z,0
2018-12-02T02:39:04.879Z,0
2018-12-02T02:42:33.718Z,0
2018-12-02T02:46:01.590Z,0
2018-12-02T02:49:29.425Z,0
2018-12-02T02:52:57.372Z,0
2018-12-02T02:56:25.214Z,0
2018-12-02T02:59:53.063Z,0
2018-12-02T03:03:20.923Z,0
2018-12-02T03:06:48.763Z,0
2018-12-02T03:10:16.620Z,0
2018-12-02T03:13:46.062Z,0
2018-12-02T03:17:13.310Z,0
2018-12-02T03:20:41.165Z,0
2018-12-02T03:24:09.020Z,0
2018-12-02T03:27:36.860Z,0
2018-12-02T03:31:04.716Z,0
2018-12-02T03:34:32.570Z,0
2018-12-02T03:38:00.426Z,0
2018-12-02T03:41:28.272Z,0
2018-12-02T03:44:56.134Z,0
2018-12-02T03:48:23.992Z,0
2018-12-02T03:51:51.838Z,0
2018-12-02T03:55:19.700Z,0
2018-12-02T03:58:47.556Z,0
2018-12-02T04:02:15.389Z,0
2018-12-02T04:05:43.243Z,0
2018-12-02T04:09:11.099Z,0
2018-12-02T04:12:39.006Z,0
2018-12-02T04:16:06.850Z,0
2018-12-02T04:19:34.707Z,0
2018-12-02T04:23:02.563Z,0
2018-12-02T04:26:30.413Z,0
2018-12-02T04:29:58.268Z,0
2018-12-02T04:33:26.127Z,0
2018-12-02T04:36:53.965Z,0
2018-12-02T04:40:21.832Z,0
2018-12-02T04:43:49.691Z,0
2018-12-02T04:47:17.531Z,0
2018-12-02T04:50:45.384Z,0
2018-12-02T04:54:13.245Z,0
2018-12-02T04:57:42.087Z,0
2018-12-02T05:01:10.930Z,0
2018-12-02T05:04:38.790Z,0
2018-12-02T05:08:06.648Z,0
2018-12-02T05:11:34.492Z,0
2018-12-02T05:15:02.355Z,0
2018-12-02T05:18:30.211Z,0
2018-12-02T05:21:58.049Z,0
2018-12-02T05:25:26.897Z,0
2018-12-02T05:28:54.754Z,0
2018-12-02T05:32:22.605Z,0
2018-12-02T05:35:50.460Z,0
2018-12-02T05:39:18.383Z,0
2018-12-02T05:42:46.235Z,0
2018-12-02T05:46:14.091Z,0
2018-12-02T05:49:41.947Z,0
2018-12-02T05:53:09.810Z,0
2018-12-02T05:56:37.649Z,0
2018-12-02T06:00:05.501Z,0
2018-12-02T06:03:33.356Z,0
2018-12-02T06:07:01.201Z,0
2018-12-02T06:10:30.052Z,0
2018-12-02T06:13:57.910Z,0
2018-12-02T06:17:26.752Z,0
2018-12-02T06:20:56.585Z,0
2018-12-02T06:24:25.444Z,1
2018-12-02T06:27:53.333Z,0
2018-12-02T06:31:21.147Z,1
2018-12-02T06:34:48.999Z,2
2018-12-02T06:38:16.868Z,4
2018-12-02T06:41:44.731Z,5
2018-12-02T06:45:12.588Z,8
2018-12-02T06:48:40.469Z,11
2018-12-02T06:52:08.317Z,14
2018-12-02T06:55:36.177Z,22
2018-12-02T06:59:04.032Z,35
2018-12-02T07:02:31.874Z,45
2018-12-02T07:06:00.842Z,56
2018-12-02T07:09:29.689Z,67
2018-12-02T07:12:57.677Z,77
2018-12-02T07:16:25.538Z,103
2018-12-02T07:19:54.386Z,133
2018-12-02T07:23:22.300Z,146
2018-12-02T07:32:52.608Z,243
2018-12-02T07:36:20.463Z,191
2018-12-02T07:39:49.310Z,224
2018-12-02T07:43:17.166Z,232
2018-12-02T07:46:45.010Z,257
2018-12-02T07:50:12.863Z,294
2018-12-02T07:53:40.715Z,307
2018-12-02T07:57:08.560Z,361
2018-12-02T08:00:37.402Z,431
2018-12-02T08:04:05.266Z,389
2018-12-02T08:07:33.103Z,308
2018-12-02T08:11:00.948Z,328
2018-12-02T08:14:28.800Z,463
2018-12-02T08:17:56.646Z,506
2018-12-02T08:21:24.504Z,459
2018-12-02T08:24:53.355Z,467
2018-12-02T08:28:22.189Z,476
2018-12-02T08:31:50.046Z,461
2018-12-02T08:35:18.904Z,478
2018-12-02T08:38:46.771Z,488
2018-12-02T08:42:15.603Z,577
2018-12-02T08:45:43.455Z,468
2018-12-02T08:49:11.333Z,366
2018-12-02T08:52:39.156Z,382
2018-12-02T08:56:07.012Z,456
2018-12-02T08:59:34.868Z,444
2018-12-02T09:03:02.773Z,520
2018-12-02T09:06:30.615Z,610
2018-12-02T09:10:00.461Z,580
2018-12-02T09:13:28.317Z,675
2018-12-02T09:16:56.167Z,870
2018-12-02T09:20:24.025Z,974
2018-12-02T09:23:52.864Z,1155
2018-12-02T09:27:20.711Z,1506
2018-12-02T09:30:48.570Z,1973
2018-12-02T09:34:16.433Z,1959
2018-12-02T09:37:44.280Z,2090
2018-12-02T09:41:12.140Z,1942
2018-12-02T09:44:40.059Z,1574
2018-12-02T09:48:08.050Z,1433
2018-12-02T09:51:35.891Z,1470
2018-12-02T09:55:03.750Z,1512
2018-12-02T09:58:31.706Z,1762
2018-12-02T10:01:59.474Z,2024
2018-12-02T10:05:28.324Z,1969
2018-12-02T10:08:56.178Z,1958
2018-12-02T10:12:24.031Z,2060
2018-12-02T10:15:51.886Z,2107
2018-12-02T10:19:19.742Z,2147
2018-12-02T10:22:47.587Z,2092
2018-12-02T10:26:15.439Z,1950
2018-12-02T10:29:44.286Z,2177
2018-12-02T10:33:12.150Z,2574
2018-12-02T10:36:39.986Z,3030
2018-12-02T10:40:07.848Z,3297
2018-12-02T10:43:35.753Z,3016
2018-12-02T10:47:03.597Z,3542
2018-12-02T10:50:31.467Z,4005
2018-12-02T10:53:59.325Z,3805
2018-12-02T10:57:29.636Z,3815
2018-12-02T11:00:57.505Z,3835
2018-12-02T11:04:25.365Z,4209
2018-12-02T11:07:53.223Z,4123
2018-12-02T11:11:21.104Z,3654
2018-12-02T11:14:48.972Z,3262
2018-12-02T11:18:16.823Z,3108
2018-12-02T11:21:44.707Z,3086
2018-12-02T11:25:12.577Z,3319
2018-12-02T11:28:42.423Z,2873
2018-12-02T11:32:10.272Z,3084
2018-12-02T11:35:38.152Z,2788
2018-12-02T11:39:06.034Z,2713
2018-12-02T11:42:33.917Z,2013
2018-12-02T11:46:01.780Z,2121
2018-12-02T11:49:29.750Z,1857
2018-12-02T11:52:57.620Z,1655
2018-12-02T11:56:25.515Z,1382
2018-12-02T11:59:53.488Z,1498
2018-12-02T12:03:21.334Z,1944
2018-12-02T12:06:49.198Z,2296
2018-12-02T12:10:17.080Z,1653
2018-12-02T12:13:44.931Z,1536
2018-12-02T12:17:12.792Z,1435
2018-12-02T12:20:40.649Z,1337
2018-12-02T12:24:08.499Z,1265
2018-12-02T12:27:37.351Z,1452
2018-12-02T12:31:06.203Z,1402
2018-12-02T12:34:34.048Z,1208
2018-12-02T12:38:01.958Z,1042
2018-12-02T12:41:29.842Z,851
2018-12-02T12:44:57.702Z,805
2018-12-02T12:48:25.558Z,1047
2018-12-02T12:51:53.442Z,1063
2018-12-02T12:55:23.058Z,778
2018-12-02T12:58:50.908Z,594
2018-12-02T13:02:18.765Z,492
2018-12-02T13:05:46.671Z,531
2018-12-02T13:09:14.517Z,543
2018-12-02T13:12:42.365Z,593
2018-12-02T13:16:10.240Z,561
2018-12-02T13:19:39.233Z,656
2018-12-02T13:23:07.016Z,681
2018-12-02T13:26:35.867Z,569
2018-12-02T13:30:04.816Z,464
2018-12-02T13:33:32.680Z,357
2018-12-02T13:37:01.480Z,296
2018-12-02T13:40:30.415Z,261
2018-12-02T13:43:58.303Z,270
2018-12-02T13:47:26.225Z,314
2018-12-02T13:50:54.089Z,319
2018-12-02T13:54:21.952Z,269
2018-12-02T13:57:49.826Z,230
2018-12-02T14:01:18.767Z,212
2018-12-02T14:04:46.971Z,227
2018-12-02T14:08:18.291Z,219
2018-12-02T14:12:02.792Z,171
2018-12-02T14:15:30.644Z,148
2018-12-02T14:18:58.531Z,116
2018-12-02T14:22:26.389Z,115
2018-12-02T14:25:54.246Z,104
2018-12-02T14:29:22.111Z,90
2018-12-02T14:32:49.987Z,76
2018-12-02T14:36:17.853Z,59
2018-12-02T14:39:45.704Z,46
2018-12-02T14:43:13.589Z,43
2018-12-02T14:46:42.493Z,33
2018-12-02T14:50:10.356Z,26
2018-12-02T14:53:38.254Z,19
2018-12-02T14:57:07.102Z,14
2018-12-02T15:00:35.217Z,9
2018-12-02T15:04:03.073Z,7
2018-12-02T15:07:30.957Z,4
2018-12-02T15:10:58.801Z,3
2018-12-02T15:14:26.654Z,1
2018-12-02T15:17:54.532Z,1
2018-12-02T15:21:22.400Z,1
2018-12-02T15:24:50.257Z,0
2018-12-02T15:28:18.124Z,0
2018-12-02T15:31:46.008Z,0
2018-12-02T15:35:13.864Z,0
2018-12-02T15:38:41.732Z,0
2018-12-02T15:42:09.601Z,0
2018-12-02T15:45:37.668Z,0
2018-12-02T15:49:05.505Z,0
2018-12-02T15:52:33.406Z,0
2018-12-02T15:56:01.275Z,0
2018-12-02T15:59:29.131Z,0
2018-12-02T16:02:57.007Z,0
2018-12-02T16:06:24.885Z,0
2018-12-02T16:09:52.760Z,0
2018-12-02T16:13:20.617Z,0
2018-12-02T16:16:48.513Z,0
2018-12-02T16:20:18.369Z,0
2018-12-02T16:23:46.252Z,0
2018-12-02T16:27:15.121Z,0
2018-12-02T16:30:42.980Z,0
2018-12-02T16:34:11.877Z,0
2018-12-02T16:37:40.568Z,0
2018-12-02T16:41:08.801Z,0
2018-12-02T16:44:36.696Z,0
2018-12-02T16:48:04.694Z,0
2018-12-02T16:51:32.595Z,0
2018-12-02T16:55:00.503Z,0
2018-12-02T16:58:28.422Z,0
2018-12-02T17:01:57.516Z,0
2018-12-02T17:05:27.309Z,0
2018-12-02T17:08:55.168Z,0
2018-12-02T17:12:23.876Z,0
2018-12-02T17:15:51.749Z,0
2018-12-02T17:19:19.613Z,0
2018-12-02T17:22:48.469Z,0
2018-12-02T17:26:16.348Z,0
2018-12-02T17:29:44.216Z,0
2018-12-02T17:33:13.200Z,0
2018-12-02T17:36:41.081Z,0
2018-12-02T17:40:08.964Z,0
2018-12-02T17:43:36.827Z,0
2018-12-02T17:47:04.819Z,0
2018-12-02T17:50:32.748Z,0
2018-12-02T17:54:00.667Z,0
2018-12-02T17:57:28.566Z,0
2018-12-02T18:00:56.830Z,0
2018-12-02T18:04:24.733Z,0
2018-12-02T18:07:52.632Z,0
2018-12-02T18:11:20.484Z,0
2018-12-02T18:14:48.328Z,0
2018-12-02T18:18:16.187Z,0
2018-12-02T18:21:44.060Z,0
2018-12-02T18:25:11.908Z,0
2018-12-02T18:28:39.791Z,0
2018-12-02T18:32:08.014Z,0
2018-12-02T18:35:35.881Z,0
2018-12-02T18:39:03.763Z,0
2018-12-02T18:42:31.626Z,0
2018-12-02T18:45:59.498Z,0
2018-12-02T18:49:27.371Z,0
2018-12-02T18:52:55.259Z,0
2018-12-02T18:56:23.125Z,0
2018-12-02T18:59:52.001Z,0
2018-12-02T19:03:19.870Z,1
2018-12-02T19:06:47.720Z,1
2018-12-02T19:10:15.604Z,1
2018-12-02T19:13:45.473Z,0
2018-12-02T19:17:13.493Z,0
2018-12-02T19:20:41.408Z,0
2018-12-02T19:24:09.355Z,0
2018-12-02T19:27:38.857Z,1
2018-12-02T19:31:07.067Z,0
2018-12-02T19:34:34.988Z,0
2018-12-02T19:38:03.100Z,1
2018-12-02T19:41:31.201Z,0
2018-12-02T19:45:07.243Z,0
2018-12-02T19:48:36.867Z,0
2018-12-02T19:52:04.835Z,0
2018-12-02T19:55:33.772Z,0
2018-12-02T19:59:00.935Z,0
2018-12-02T20:02:28.809Z,1
2018-12-02T20:05:56.741Z,0
2018-12-02T20:09:25.785Z,0
2018-12-02T20:12:53.684Z,0
2018-12-02T20:16:21.609Z,0
2018-12-02T20:19:50.536Z,0
2018-12-02T20:23:18.440Z,0
2018-12-02T20:26:46.422Z,0
2018-12-02T20:30:14.302Z,0
2018-12-02T20:33:42.164Z,0
2018-12-02T20:37:10.043Z,0
2018-12-02T20:40:38.003Z,0
2018-12-02T20:44:05.943Z,0
2018-12-02T20:47:33.810Z,0
2018-12-02T20:51:01.673Z,0
2018-12-02T20:54:29.536Z,0
2018-12-02T20:57:58.492Z,0
2018-12-02T21:01:26.617Z,0
2018-12-02T21:04:54.541Z,0
2018-12-02T21:08:22.503Z,0
2018-12-02T21:11:50.347Z,0
2018-12-02T21:15:18.203Z,0
2018-12-02T21:18:46.064Z,0
2018-12-02T21:22:13.907Z,0
2018-12-02T21:25:41.790Z,0
2018-12-02T21:29:09.645Z,0
2018-12-02T21:32:37.494Z,0
2018-12-02T21:36:05.353Z,0
2018-12-02T21:39:33.216Z,0
2018-12-02T21:43:01.060Z,0
2018-12-02T21:46:28.957Z,0
2018-12-02T21:49:57.805Z,0
2018-12-02T21:53:25.663Z,0
2018-12-02T21:56:53.521Z,0
2018-12-02T22:00:21.379Z,0
2018-12-02T22:03:49.241Z,0
2018-12-02T22:07:17.085Z,0
2018-12-02T22:10:44.945Z,0
2018-12-02T22:14:12.808Z,0
2018-12-02T22:17:40.764Z,0
2018-12-02T22:21:08.622Z,0
2018-12-02T22:24:36.480Z,0
2018-12-02T22:28:04.321Z,0
2018-12-02T22:31:32.173Z,0
2018-12-02T22:35:00.033Z,0
2018-12-02T22:38:27.873Z,0
2018-12-02T22:41:55.734Z,0
2018-12-02T22:45:23.588Z,0
2018-12-02T22:48:51.445Z,0
2018-12-02T22:52:19.298Z,0
2018-12-02T22:55:47.153Z,0
2018-12-02T22:59:15.010Z,0
2018-12-02T23:02:42.855Z,0
2018-12-02T23:06:10.716Z,0
2018-12-02T23:09:38.572Z,0
2018-12-02T23:13:06.418Z,0
2018-12-02T23:16:34.281Z,0
2018-12-02T23:20:02.137Z,0
2018-12-02T23:23:30.002Z,0
2018-12-02T23:26:57.843Z,0
2018-12-02T23:30:25.702Z,0
2018-12-02T23:33:53.553Z,0
2018-12-02T23:37:22.395Z,0
2018-12-02T23:40:50.252Z,0
2018-12-02T23:44:18.113Z,0
2018-12-02T23:47:45.964Z,0
2018-12-02T23:51:13.809Z,0
2018-12-02T23:54:41.662Z,0
2018-12-02T23:58:09.525Z,0
